createdAt,value
2023-04-03T00:02:02.158Z,1.39
2023-04-03T00:07:04.114Z,1.42
2023-04-03T00:12:05.906Z,1.42
2023-04-03T00:17:07.737Z,1.40
2023-04-03T00:22:11.192Z,1.39
2023-04-03T00:27:16.794Z,1.42
2023-04-03T00:32:18.578Z,1.43
2023-04-03T00:37:20.446Z,1.42
2023-04-03T00:42:22.158Z,1.42
2023-04-03T00:47:24.153Z,1.41
2023-04-03T00:52:30.548Z,1.40
2023-04-03T00:57:33.330Z,1.41
2023-04-03T01:02:35.393Z,1.39
2023-04-03T01:07:38.231Z,1.41
2023-04-03T01:12:46.696Z,1.44
2023-04-03T01:17:53.217Z,1.44
2023-04-03T01:23:12.139Z,1.46
2023-04-03T01:28:18.482Z,1.46
2023-04-03T01:33:20.506Z,1.47
2023-04-03T01:38:22.987Z,1.49
2023-04-03T01:43:25.633Z,1.51
2023-04-03T01:48:27.518Z,1.48
2023-04-03T01:53:30.354Z,1.44
2023-04-03T01:58:32.394Z,1.42
2023-04-03T02:03:34.768Z,1.34
2023-04-03T02:08:36.620Z,1.30
2023-04-03T02:13:38.293Z,1.25
2023-04-03T02:18:40.302Z,1.21
2023-04-03T02:23:42.184Z,1.21
2023-04-03T02:28:44.427Z,1.16
2023-04-03T02:33:46.155Z,1.09
2023-04-03T02:38:49.517Z,1.06
2023-04-03T02:43:51.318Z,1.00
2023-04-03T02:48:53.219Z,0.95
2023-04-03T02:53:55.334Z,0.87
2023-04-03T02:58:59.947Z,0.58
2023-04-03T03:04:02.098Z,0.50
2023-04-03T03:09:04.580Z,0.29
2023-04-03T03:14:06.357Z,0.08
2023-04-03T03:19:08.813Z,-0.11
2023-04-03T03:24:10.645Z,-0.25
2023-04-03T03:29:13.713Z,-0.38
2023-04-03T03:34:16.393Z,-0.52
2023-04-03T03:39:18.645Z,-0.62
2023-04-03T03:44:21.331Z,-0.73
2023-04-03T03:49:23.413Z,-0.84
2023-04-03T03:54:25.237Z,-0.92
2023-04-03T03:59:27.277Z,-0.99
2023-04-03T04:04:29.055Z,-1.03
2023-04-03T04:09:31.433Z,-1.09
2023-04-03T04:14:33.376Z,-1.17
2023-04-03T04:19:35.318Z,-1.21
2023-04-03T04:24:38.549Z,-1.23
2023-04-03T04:29:42.869Z,-1.29
2023-04-03T04:34:45.024Z,-1.34
2023-04-03T04:39:46.895Z,-1.37
2023-04-03T04:44:48.834Z,-1.38
2023-04-03T04:49:51.150Z,-1.37
2023-04-03T04:54:53.495Z,-1.38
2023-04-03T04:59:55.553Z,-1.37
2023-04-03T05:04:57.821Z,-1.35
2023-04-03T05:10:03.434Z,-1.36
2023-04-03T05:15:06.937Z,-1.40
2023-04-03T05:20:09.608Z,-1.40
2023-04-03T05:25:12.131Z,-1.43
2023-04-03T05:30:15.423Z,-1.46
2023-04-03T05:35:17.698Z,-1.46
2023-04-03T05:40:20.334Z,-1.46
2023-04-03T05:45:23.966Z,-1.48
2023-04-03T05:50:26.217Z,-1.46
2023-04-03T05:55:28.523Z,-1.39
2023-04-03T06:00:30.672Z,-1.28
2023-04-03T06:05:36.356Z,-1.12
2023-04-03T06:10:38.741Z,-0.92
2023-04-03T06:15:41.598Z,-0.81
2023-04-03T06:20:44.588Z,-0.71
2023-04-03T06:25:47.045Z,-0.63
2023-04-03T06:30:48.815Z,-0.68
2023-04-03T06:35:50.662Z,-0.62
2023-04-03T06:40:53.189Z,-0.49
2023-04-03T06:45:55.043Z,-0.35
2023-04-03T06:50:56.807Z,-0.28
2023-04-03T06:55:58.478Z,-0.31
2023-04-03T07:01:01.012Z,-0.17
2023-04-03T07:06:02.736Z,0.00
2023-04-03T07:11:05.190Z,0.11
2023-04-03T07:16:08.032Z,0.28
2023-04-03T07:21:09.802Z,0.57
2023-04-03T07:26:11.490Z,0.85
2023-04-03T07:31:14.680Z,1.12
2023-04-03T07:36:19.364Z,1.39
2023-04-03T07:41:23.930Z,1.66
2023-04-03T07:46:25.810Z,1.93
2023-04-03T07:51:29.168Z,2.00
2023-04-03T07:56:31.311Z,1.88
2023-04-03T08:01:34.634Z,1.97
2023-04-03T08:06:46.618Z,2.18
2023-04-03T08:11:49.052Z,2.29
2023-04-03T08:16:51.491Z,2.17
2023-04-03T08:21:54.904Z,1.96
2023-04-03T08:26:56.622Z,1.83
2023-04-03T08:31:58.322Z,1.86
2023-04-03T08:37:00.514Z,1.97
2023-04-03T08:42:08.850Z,2.16
2023-04-03T08:47:39.603Z,2.46
2023-04-03T08:52:57.755Z,2.66
2023-04-03T08:58:04.033Z,2.52
2023-04-03T09:03:05.827Z,2.43
2023-04-03T09:08:19.204Z,2.56
2023-04-03T09:13:28.255Z,2.67
2023-04-03T09:18:33.807Z,2.88
2023-04-03T09:23:46.684Z,3.06
2023-04-03T09:28:50.726Z,3.09
2023-04-03T09:33:58.775Z,3.11
2023-04-03T09:39:05.993Z,3.03
2023-04-03T09:44:23.645Z,3.07
2023-04-03T09:49:25.804Z,3.07
2023-04-03T09:54:32.739Z,2.95
2023-04-03T09:59:34.549Z,2.96
2023-04-03T10:04:43.048Z,3.04
2023-04-03T10:09:56.502Z,3.17
2023-04-03T10:15:01.840Z,3.29
2023-04-03T10:20:26.107Z,3.40
2023-04-03T10:25:36.177Z,3.49
2023-04-03T10:30:55.013Z,3.35
2023-04-03T10:36:20.656Z,3.38
2023-04-03T10:42:17.251Z,3.42
2023-04-03T10:47:23.040Z,3.48
2023-04-03T10:52:27.859Z,3.66
2023-04-03T10:57:31.622Z,3.90
2023-04-03T11:03:04.950Z,3.99
2023-04-03T11:08:26.184Z,4.00
2023-04-03T11:13:37.214Z,4.25
2023-04-03T11:18:46.253Z,4.31
2023-04-03T11:23:50.218Z,4.54
2023-04-03T11:29:02.645Z,4.74
2023-04-03T11:34:09.154Z,4.85
2023-04-03T11:39:33.123Z,5.05
2023-04-03T11:44:38.776Z,4.79
2023-04-03T11:50:06.187Z,4.67
2023-04-03T11:55:23.301Z,4.94
2023-04-03T12:00:43.626Z,5.15
2023-04-03T12:05:45.604Z,4.91
2023-04-03T12:11:10.018Z,4.74
2023-04-03T12:16:27.323Z,4.97
2023-04-03T12:21:35.169Z,5.08
2023-04-03T12:26:48.776Z,5.27
2023-04-03T12:32:36.954Z,5.28
2023-04-03T12:37:54.099Z,5.31
2023-04-03T12:42:59.248Z,5.43
2023-04-03T12:48:05.781Z,5.44
2023-04-03T12:53:15.644Z,4.94
2023-04-03T12:58:27.261Z,4.80
2023-04-03T13:03:29.473Z,5.26
2023-04-03T13:08:33.316Z,5.35
2023-04-03T13:13:35.199Z,5.13
2023-04-03T13:18:38.060Z,5.04
2023-04-03T13:23:43.174Z,5.46
2023-04-03T13:28:46.485Z,5.72
2023-04-03T13:34:14.515Z,5.40
2023-04-03T13:39:16.481Z,5.03
2023-04-03T13:44:24.025Z,5.17
2023-04-03T13:49:44.472Z,5.18
2023-04-03T13:54:48.098Z,5.03
2023-04-03T13:59:51.076Z,4.90
2023-04-03T14:05:02.225Z,4.75
2023-04-03T14:10:04.299Z,5.17
2023-04-03T14:15:17.186Z,5.17
2023-04-03T14:20:22.799Z,5.20
2023-04-03T14:25:26.665Z,5.08
2023-04-03T14:30:33.049Z,4.80
2023-04-03T14:35:34.813Z,5.10
2023-04-03T14:40:36.740Z,5.05
2023-04-03T14:45:39.713Z,5.05
2023-04-03T14:50:45.154Z,4.90
2023-04-03T14:55:53.882Z,4.82
2023-04-03T15:00:55.529Z,4.61
2023-04-03T15:05:58.468Z,4.32
2023-04-03T15:11:00.198Z,4.09
2023-04-03T15:16:01.893Z,4.02
2023-04-03T15:21:03.831Z,3.99
2023-04-03T15:26:06.146Z,3.91
2023-04-03T15:31:08.477Z,3.83
2023-04-03T15:36:22.922Z,3.73
2023-04-03T15:41:32.572Z,3.69
2023-04-03T15:46:34.373Z,3.63
2023-04-03T15:51:36.715Z,3.55
2023-04-03T15:56:38.485Z,3.47
2023-04-03T16:01:41.298Z,3.38
2023-04-03T16:06:43.985Z,3.36
2023-04-03T16:11:46.076Z,3.26
2023-04-03T16:16:47.776Z,3.17
2023-04-03T16:21:50.739Z,3.10
2023-04-03T16:26:54.218Z,3.05
2023-04-03T16:31:57.888Z,3.01
2023-04-03T16:37:00.507Z,2.96
2023-04-03T16:42:02.636Z,2.89
2023-04-03T16:47:04.536Z,2.81
2023-04-03T16:52:06.682Z,2.71
2023-04-03T16:57:08.587Z,2.64
2023-04-03T17:02:10.808Z,2.57
2023-04-03T17:07:12.703Z,2.47
2023-04-03T17:12:14.803Z,2.35
2023-04-03T17:17:19.373Z,2.25
2023-04-03T17:22:21.254Z,2.19
2023-04-03T17:27:23.004Z,2.14
2023-04-03T17:32:26.184Z,2.10
2023-04-03T17:37:28.163Z,1.89
2023-04-03T17:42:31.501Z,1.96
2023-04-03T17:47:33.249Z,1.91
2023-04-03T17:52:35.030Z,1.85
2023-04-03T17:57:36.723Z,1.80
2023-04-03T18:02:38.452Z,1.76
2023-04-03T18:07:41.290Z,1.74
2023-04-03T18:12:43.495Z,1.73
2023-04-03T18:17:46.341Z,1.69
2023-04-03T18:22:48.151Z,1.65
2023-04-03T18:27:50.115Z,1.61
2023-04-03T18:32:52.199Z,1.58
2023-04-03T18:37:54.035Z,1.54
2023-04-03T18:42:55.699Z,1.50
2023-04-03T18:47:58.037Z,1.46
2023-04-03T18:52:59.829Z,1.42
2023-04-03T18:58:01.470Z,1.38
2023-04-03T19:03:03.466Z,1.32
2023-04-03T19:08:05.857Z,1.28
2023-04-03T19:13:07.608Z,1.22
2023-04-03T19:18:09.287Z,1.17
2023-04-03T19:23:12.835Z,1.12
2023-04-03T19:28:14.849Z,1.06
2023-04-03T19:33:16.654Z,0.99
2023-04-03T19:38:18.468Z,0.93
2023-04-03T19:43:20.297Z,0.88
2023-04-03T19:48:22.015Z,0.83
2023-04-03T19:53:28.883Z,0.79
2023-04-03T19:58:30.797Z,0.77
2023-04-03T20:03:33.422Z,0.78
2023-04-03T20:08:37.033Z,0.79
2023-04-03T20:13:38.724Z,0.78
2023-04-03T20:18:41.986Z,0.72
2023-04-03T20:23:45.006Z,0.67
2023-04-03T20:28:46.662Z,0.59
2023-04-03T20:33:49.535Z,0.53
2023-04-03T20:38:52.755Z,0.47
2023-04-03T20:43:54.566Z,0.41
2023-04-03T20:48:58.036Z,0.33
2023-04-03T20:53:59.757Z,0.23
2023-04-03T20:59:04.660Z,0.18
2023-04-03T21:04:13.326Z,-0.03
2023-04-03T21:09:54.496Z,0.17
2023-04-03T21:15:41.495Z,0.18
2023-04-03T21:20:47.360Z,0.23
2023-04-03T21:25:49.780Z,0.28
2023-04-03T21:30:51.524Z,0.27
2023-04-03T21:35:59.980Z,0.21
2023-04-03T21:41:04.836Z,0.09
2023-04-03T21:46:07.375Z,-0.05
2023-04-03T21:51:11.006Z,-0.16
2023-04-03T21:56:17.367Z,-0.19
2023-04-03T22:01:20.419Z,-0.16
2023-04-03T22:06:22.329Z,-0.11
2023-04-03T22:11:27.022Z,-0.10
2023-04-03T22:16:28.707Z,-0.11
2023-04-03T22:21:30.872Z,-0.16
2023-04-03T22:26:32.516Z,-0.21
2023-04-03T22:31:35.522Z,-0.25
2023-04-03T22:36:38.715Z,-0.26
2023-04-03T22:41:40.537Z,-0.24
2023-04-03T22:46:42.332Z,-0.27
2023-04-03T22:51:44.138Z,-0.32
2023-04-03T22:56:45.814Z,-0.38
2023-04-03T23:01:47.503Z,-0.43
2023-04-03T23:06:49.469Z,-0.43
2023-04-03T23:11:53.993Z,-0.43
2023-04-03T23:16:55.946Z,-0.49
2023-04-03T23:21:57.776Z,-0.58
2023-04-03T23:26:59.576Z,-0.72
2023-04-03T23:32:01.732Z,-0.80
2023-04-03T23:37:03.929Z,-0.85
2023-04-03T23:42:09.337Z,-0.91
2023-04-03T23:47:12.031Z,-1.02
2023-04-03T23:52:15.518Z,-1.14
2023-04-03T23:57:17.206Z,-1.25
